createdAt,value
2023-05-09T00:02:35.603Z,0.00
2023-05-09T00:07:35.489Z,0.00
2023-05-09T00:12:35.411Z,0.00
2023-05-09T00:17:35.359Z,0.00
2023-05-09T00:22:35.285Z,0.00
2023-05-09T00:27:35.224Z,0.00
2023-05-09T00:32:35.188Z,0.00
2023-05-09T00:37:35.080Z,0.00
2023-05-09T00:42:35.013Z,0.00
2023-05-09T00:47:34.976Z,0.00
2023-05-09T00:52:34.872Z,0.00
2023-05-09T00:57:34.823Z,0.00
2023-05-09T01:02:34.814Z,0.00
2023-05-09T01:07:34.692Z,0.00
2023-05-09T01:12:34.608Z,0.00
2023-05-09T01:17:34.577Z,0.00
2023-05-09T01:22:34.476Z,0.00
2023-05-09T01:27:34.435Z,0.00
2023-05-09T01:32:34.355Z,0.00
2023-05-09T01:37:34.306Z,0.00
2023-05-09T01:42:34.211Z,0.00
2023-05-09T01:47:34.178Z,0.00
2023-05-09T01:52:34.078Z,0.00
2023-05-09T01:57:34.018Z,0.00
2023-05-09T02:02:34.024Z,0.00
2023-05-09T02:07:33.885Z,0.00
2023-05-09T02:12:33.812Z,0.00
2023-05-09T02:17:33.800Z,0.00
2023-05-09T02:22:33.682Z,0.00
2023-05-09T02:27:33.628Z,0.00
2023-05-09T02:32:33.560Z,0.00
2023-05-09T02:37:33.500Z,0.00
2023-05-09T02:42:33.407Z,0.00
2023-05-09T02:47:33.396Z,0.00
2023-05-09T02:52:33.279Z,0.00
2023-05-09T02:57:33.217Z,0.00
2023-05-09T03:02:33.212Z,0.00
2023-05-09T03:07:33.091Z,0.00
2023-05-09T03:12:33.030Z,0.00
2023-05-09T03:17:32.990Z,5.62
2023-05-09T03:22:32.892Z,5.62
2023-05-09T03:27:32.846Z,11.25
2023-05-09T03:32:32.827Z,22.50
2023-05-09T03:37:32.705Z,33.75
2023-05-09T03:42:32.635Z,45.00
2023-05-09T03:47:32.565Z,56.25
2023-05-09T03:52:32.492Z,129.37
2023-05-09T03:57:32.425Z,185.62
2023-05-09T04:02:32.479Z,275.62
2023-05-09T04:07:32.294Z,219.37
2023-05-09T04:12:32.234Z,258.75
2023-05-09T04:17:32.181Z,326.25
2023-05-09T04:22:32.099Z,303.75
2023-05-09T04:27:32.030Z,399.37
2023-05-09T04:32:32.084Z,444.37
2023-05-09T04:37:31.893Z,478.12
2023-05-09T04:42:31.838Z,511.87
2023-05-09T04:47:31.803Z,556.87
2023-05-09T04:52:31.700Z,596.25
2023-05-09T04:57:31.623Z,635.62
2023-05-09T05:02:31.600Z,691.87
2023-05-09T05:07:31.492Z,742.50
2023-05-09T05:12:31.443Z,810.00
2023-05-09T05:17:31.439Z,871.87
2023-05-09T05:22:32.783Z,956.25
2023-05-09T05:27:31.236Z,1108.12
2023-05-09T05:32:31.235Z,1631.25
2023-05-09T05:37:31.097Z,2863.12
2023-05-09T05:42:31.029Z,2767.50
2023-05-09T05:47:30.992Z,2925.00
2023-05-09T05:52:30.890Z,3375.00
2023-05-09T05:57:30.826Z,3690.00
2023-05-09T06:02:30.847Z,3796.87
2023-05-09T06:07:30.694Z,3965.62
2023-05-09T06:12:30.616Z,3791.25
2023-05-09T06:17:30.572Z,3813.75
2023-05-09T06:22:30.477Z,4128.75
2023-05-09T06:27:30.419Z,4021.87
2023-05-09T06:32:30.383Z,3892.50
2023-05-09T06:37:30.291Z,4021.87
2023-05-09T06:42:30.218Z,4432.50
2023-05-09T06:47:30.186Z,4336.87
2023-05-09T06:52:30.093Z,4275.00
2023-05-09T06:57:30.032Z,4635.00
2023-05-09T07:02:30.038Z,4336.87
2023-05-09T07:07:29.894Z,4910.62
2023-05-09T07:12:29.816Z,4488.75
2023-05-09T07:17:29.793Z,2986.87
2023-05-09T07:22:31.587Z,4005.00
2023-05-09T07:27:29.628Z,4848.75
2023-05-09T07:32:29.584Z,5281.87
2023-05-09T07:37:29.506Z,4528.12
2023-05-09T07:42:29.427Z,4865.62
2023-05-09T07:47:29.407Z,4893.75
2023-05-09T07:52:29.536Z,4511.25
2023-05-09T07:57:29.227Z,4483.12
2023-05-09T08:02:29.273Z,5647.50
2023-05-09T08:07:29.095Z,4561.87
2023-05-09T08:12:29.018Z,4871.25
2023-05-09T08:17:29.013Z,5017.50
2023-05-09T08:22:28.899Z,3684.37
2023-05-09T08:27:28.836Z,4860.00
2023-05-09T08:32:28.797Z,5135.62
2023-05-09T08:37:28.722Z,4500.00
2023-05-09T08:42:28.637Z,4955.62
2023-05-09T08:47:28.632Z,4961.25
2023-05-09T08:52:28.508Z,4511.25
2023-05-09T08:57:28.456Z,4561.87
2023-05-09T09:02:28.394Z,4483.12
2023-05-09T09:07:30.544Z,4500.00
2023-05-09T09:12:28.256Z,4173.75
2023-05-09T09:17:28.251Z,4353.75
2023-05-09T09:22:28.128Z,4612.50
2023-05-09T09:27:28.074Z,4455.00
2023-05-09T09:32:28.009Z,4066.87
2023-05-09T09:37:28.029Z,3926.25
2023-05-09T09:42:27.871Z,4156.87
2023-05-09T09:47:27.823Z,3853.12
2023-05-09T09:52:27.731Z,4095.00
2023-05-09T09:57:27.677Z,3999.37
2023-05-09T10:02:27.638Z,4078.12
2023-05-09T10:07:27.540Z,3802.50
2023-05-09T10:12:27.471Z,3189.37
2023-05-09T10:17:27.549Z,3819.37
2023-05-09T10:22:27.328Z,3735.00
2023-05-09T10:27:27.268Z,3476.25
2023-05-09T10:32:27.229Z,3386.25
2023-05-09T10:37:27.129Z,3172.50
2023-05-09T10:42:27.061Z,3105.00
2023-05-09T10:47:27.012Z,3138.75
2023-05-09T10:52:26.911Z,2829.37
2023-05-09T10:57:26.861Z,3116.25
2023-05-09T11:02:26.799Z,3442.50
2023-05-09T11:07:26.726Z,3937.50
2023-05-09T11:12:26.637Z,3757.50
2023-05-09T11:17:26.613Z,2401.87
2023-05-09T11:22:26.501Z,1406.25
2023-05-09T11:27:26.439Z,1158.75
2023-05-09T11:32:26.379Z,1068.75
2023-05-09T11:37:26.312Z,984.37
2023-05-09T11:42:26.246Z,995.62
2023-05-09T11:47:26.199Z,753.75
2023-05-09T11:52:26.105Z,528.75
2023-05-09T11:57:26.035Z,523.12
2023-05-09T12:02:26.048Z,511.87
2023-05-09T12:07:25.901Z,483.75
2023-05-09T12:12:25.822Z,427.50
2023-05-09T12:17:25.804Z,382.50
2023-05-09T12:22:25.735Z,376.87
2023-05-09T12:27:25.629Z,376.87
2023-05-09T12:32:25.591Z,382.50
2023-05-09T12:37:25.495Z,376.87
2023-05-09T12:42:25.419Z,376.87
2023-05-09T12:47:25.363Z,371.25
2023-05-09T12:52:25.279Z,376.87
2023-05-09T12:57:25.218Z,376.87
2023-05-09T13:02:25.224Z,399.37
2023-05-09T13:07:25.097Z,388.12
2023-05-09T13:12:25.012Z,382.50
2023-05-09T13:17:25.039Z,376.87
2023-05-09T13:22:24.884Z,365.62
2023-05-09T13:27:24.824Z,365.62
2023-05-09T13:32:24.762Z,365.62
2023-05-09T13:37:24.685Z,365.62
2023-05-09T13:42:24.612Z,343.12
2023-05-09T13:47:24.666Z,348.75
2023-05-09T13:52:24.526Z,337.50
2023-05-09T13:57:24.417Z,360.00
2023-05-09T14:02:24.396Z,360.00
2023-05-09T14:07:24.498Z,360.00
2023-05-09T14:12:24.222Z,348.75
2023-05-09T14:17:24.195Z,348.75
2023-05-09T14:22:24.123Z,348.75
2023-05-09T14:27:24.026Z,343.12
2023-05-09T14:32:23.949Z,337.50
2023-05-09T14:37:23.992Z,326.25
2023-05-09T14:42:23.815Z,331.87
2023-05-09T14:47:23.886Z,320.62
2023-05-09T14:52:23.972Z,331.87
2023-05-09T14:57:23.634Z,337.50
2023-05-09T15:02:23.877Z,348.75
2023-05-09T15:07:23.798Z,348.75
2023-05-09T15:12:23.422Z,348.75
2023-05-09T15:17:23.376Z,337.50
2023-05-09T15:22:23.287Z,331.87
2023-05-09T15:27:23.228Z,326.25
2023-05-09T15:32:23.288Z,315.00
2023-05-09T15:37:23.103Z,309.37
2023-05-09T15:42:23.040Z,281.25
2023-05-09T15:47:22.977Z,258.75
2023-05-09T15:52:22.893Z,253.12
2023-05-09T15:57:22.857Z,270.00
2023-05-09T16:02:22.828Z,281.25
2023-05-09T16:07:22.699Z,270.00
2023-05-09T16:12:22.622Z,253.12
2023-05-09T16:17:22.556Z,258.75
2023-05-09T16:22:22.485Z,258.75
2023-05-09T16:27:22.425Z,247.50
2023-05-09T16:32:22.351Z,208.12
2023-05-09T16:37:22.284Z,213.75
2023-05-09T16:42:22.209Z,213.75
2023-05-09T16:47:22.146Z,202.50
2023-05-09T16:52:22.075Z,208.12
2023-05-09T16:57:22.009Z,213.75
2023-05-09T17:02:21.936Z,208.12
2023-05-09T17:07:21.900Z,196.87
2023-05-09T17:12:21.801Z,191.25
2023-05-09T17:17:21.776Z,174.37
2023-05-09T17:22:21.679Z,168.75
2023-05-09T17:27:21.625Z,157.50
2023-05-09T17:32:21.544Z,157.50
2023-05-09T17:37:21.537Z,151.87
2023-05-09T17:42:21.415Z,140.62
2023-05-09T17:47:21.356Z,135.00
2023-05-09T17:52:21.280Z,118.12
2023-05-09T17:57:21.223Z,106.87
2023-05-09T18:02:21.191Z,90.00
2023-05-09T18:07:21.100Z,84.37
2023-05-09T18:12:21.030Z,73.12
2023-05-09T18:17:20.966Z,56.25
2023-05-09T18:22:20.891Z,45.00
2023-05-09T18:27:20.830Z,33.75
2023-05-09T18:32:20.754Z,22.50
2023-05-09T18:37:20.702Z,16.87
2023-05-09T18:42:20.624Z,11.25
2023-05-09T18:47:20.563Z,5.62
2023-05-09T18:52:20.502Z,0.00
2023-05-09T18:57:20.438Z,0.00
2023-05-09T19:02:20.357Z,0.00
2023-05-09T19:07:20.310Z,0.00
2023-05-09T19:12:20.220Z,0.00
2023-05-09T19:17:20.159Z,0.00
2023-05-09T19:22:20.089Z,0.00
2023-05-09T19:27:20.019Z,0.00
2023-05-09T19:32:19.958Z,0.00
2023-05-09T19:37:19.888Z,0.00
2023-05-09T19:42:19.823Z,0.00
2023-05-09T19:47:19.759Z,0.00
2023-05-09T19:52:19.696Z,0.00
2023-05-09T19:57:19.659Z,0.00
2023-05-09T20:02:19.550Z,0.00
2023-05-09T20:07:19.495Z,0.00
2023-05-09T20:12:19.427Z,0.00
2023-05-09T20:17:19.360Z,0.00
2023-05-09T20:22:19.292Z,0.00
2023-05-09T20:27:19.223Z,0.00
2023-05-09T20:32:19.149Z,0.00
2023-05-09T20:37:19.091Z,0.00
2023-05-09T20:42:19.018Z,0.00
2023-05-09T20:47:18.961Z,0.00
2023-05-09T20:52:18.937Z,0.00
2023-05-09T20:57:18.997Z,0.00
2023-05-09T21:02:19.049Z,0.00
2023-05-09T21:07:19.120Z,0.00
2023-05-09T21:12:18.980Z,0.00
2023-05-09T21:17:19.095Z,0.00
2023-05-09T21:22:19.044Z,0.00
2023-05-09T21:27:18.441Z,0.00
2023-05-09T21:32:18.352Z,0.00
2023-05-09T21:37:18.292Z,0.00
2023-05-09T21:42:18.212Z,0.00
2023-05-09T21:47:18.305Z,0.00
2023-05-09T21:52:18.094Z,0.00
2023-05-09T21:57:18.017Z,0.00
2023-05-09T22:02:18.097Z,0.00
2023-05-09T22:07:17.889Z,0.00
2023-05-09T22:12:17.810Z,0.00
2023-05-09T22:17:17.756Z,0.00
2023-05-09T22:22:17.681Z,0.00
2023-05-09T22:27:17.654Z,0.00
2023-05-09T22:32:17.552Z,0.00
2023-05-09T22:37:17.495Z,0.00
2023-05-09T22:42:17.423Z,0.00
2023-05-09T22:47:17.366Z,0.00
2023-05-09T22:52:17.306Z,0.00
2023-05-09T22:57:17.236Z,0.00
2023-05-09T23:02:17.177Z,0.00
2023-05-09T23:07:17.110Z,0.00
2023-05-09T23:12:17.034Z,0.00
2023-05-09T23:17:16.975Z,0.00
2023-05-09T23:22:16.906Z,0.00
2023-05-09T23:27:16.894Z,0.00
2023-05-09T23:32:16.773Z,0.00
2023-05-09T23:37:16.710Z,0.00
2023-05-09T23:42:16.639Z,0.00
2023-05-09T23:47:16.597Z,0.00
2023-05-09T23:52:16.505Z,0.00
2023-05-09T23:57:16.441Z,0.00
